createdAt,value
2022-08-01T00:00:18.392Z,3.33
2022-08-01T00:10:21.612Z,3.05
2022-08-01T00:20:25.625Z,3.35
2022-08-01T00:30:28.269Z,3.10
2022-08-01T00:40:32.289Z,2.42
2022-08-01T00:50:35.668Z,2.80
2022-08-01T01:00:53.599Z,2.85
2022-08-01T01:11:05.578Z,3.20
2022-08-01T01:21:22.536Z,3.95
2022-08-01T01:31:30.697Z,2.88
2022-08-01T01:41:34.249Z,2.90
2022-08-01T01:51:40.034Z,3.47
2022-08-01T02:02:05.647Z,3.70
2022-08-01T02:12:09.200Z,3.47
2022-08-01T02:22:16.012Z,3.53
2022-08-01T02:32:26.470Z,3.40
2022-08-01T02:42:30.888Z,3.25
2022-08-01T02:52:35.155Z,2.63
2022-08-01T03:02:38.243Z,2.58
2022-08-01T03:12:43.266Z,1.80
2022-08-01T03:22:49.757Z,1.52
2022-08-01T03:32:53.968Z,2.70
2022-08-01T03:43:02.301Z,2.00
2022-08-01T03:53:10.604Z,2.53
2022-08-01T04:03:14.523Z,2.40
2022-08-01T04:13:18.497Z,2.10
2022-08-01T04:23:24.922Z,2.90
2022-08-01T04:33:31.692Z,2.55
2022-08-01T04:43:34.907Z,2.33
2022-08-01T04:53:38.898Z,2.50
2022-08-01T05:03:41.733Z,2.33
2022-08-01T05:13:45.761Z,2.75
2022-08-01T05:23:51.020Z,2.40
2022-08-01T05:33:55.041Z,2.72
2022-08-01T05:43:57.735Z,2.10
2022-08-01T05:54:02.080Z,2.58
2022-08-01T06:04:05.159Z,2.95
2022-08-01T06:14:09.311Z,2.72
2022-08-01T06:24:11.980Z,2.63
2022-08-01T06:34:16.539Z,2.75
2022-08-01T06:44:19.171Z,2.47
2022-08-01T06:54:23.156Z,2.50
2022-08-01T07:04:25.800Z,1.98
2022-08-01T07:14:29.805Z,1.98
2022-08-01T07:24:32.599Z,1.98
2022-08-01T07:34:39.073Z,2.00
2022-08-01T07:44:41.702Z,1.52
2022-08-01T07:54:49.262Z,1.70
2022-08-01T08:04:54.827Z,1.98
2022-08-01T08:15:00.083Z,1.98
2022-08-01T08:25:03.270Z,2.30
2022-08-01T08:35:08.559Z,1.95
2022-08-01T08:45:14.728Z,2.13
2022-08-01T08:55:20.036Z,2.22
2022-08-01T09:05:26.569Z,1.67
2022-08-01T09:15:49.131Z,1.75
2022-08-01T09:25:56.916Z,1.75
2022-08-01T09:36:03.389Z,2.10
2022-08-01T09:46:12.555Z,1.38
2022-08-01T09:56:16.872Z,1.30
2022-08-01T10:06:24.755Z,1.45
2022-08-01T10:16:30.574Z,1.60
2022-08-01T10:26:35.459Z,1.33
2022-08-01T10:36:44.548Z,1.10
2022-08-01T10:46:52.179Z,1.75
2022-08-01T10:57:01.764Z,1.50
2022-08-01T11:07:07.156Z,1.23
2022-08-01T11:17:37.237Z,1.65
2022-08-01T11:27:40.852Z,1.13
2022-08-01T11:37:44.941Z,1.30
2022-08-01T11:47:50.206Z,2.17
2022-08-01T11:58:01.517Z,1.00
2022-08-01T12:08:05.589Z,1.38
2022-08-01T12:18:11.270Z,1.00
2022-08-01T12:28:14.952Z,1.40
2022-08-01T12:38:27.897Z,1.02
2022-08-01T12:48:33.022Z,1.00
2022-08-01T12:58:37.652Z,1.60
2022-08-01T13:08:40.383Z,1.30
2022-08-01T13:18:50.804Z,0.80
2022-08-01T13:29:06.299Z,1.10
2022-08-01T13:39:45.651Z,1.00
2022-08-01T13:49:50.365Z,1.00
2022-08-01T13:59:54.474Z,0.75
2022-08-01T14:10:04.689Z,1.25
2022-08-01T14:20:21.507Z,1.00
2022-08-01T14:30:24.185Z,1.17
2022-08-01T14:40:28.469Z,0.90
2022-08-01T14:50:32.062Z,1.15
2022-08-01T15:00:36.355Z,1.05
2022-08-01T15:10:39.149Z,1.27
2022-08-01T15:20:43.231Z,1.10
2022-08-01T15:30:46.069Z,0.98
2022-08-01T15:40:50.121Z,1.17
2022-08-01T15:50:52.821Z,1.50
2022-08-01T16:00:56.901Z,1.10
2022-08-01T16:10:59.616Z,1.20
2022-08-01T16:21:03.943Z,1.50
2022-08-01T16:31:09.667Z,0.82
2022-08-01T16:41:20.717Z,1.23
2022-08-01T16:51:23.548Z,1.08
2022-08-01T17:01:57.943Z,1.30
2022-08-01T17:11:51.402Z,1.33
2022-08-01T17:21:55.551Z,1.20
2022-08-01T17:31:59.731Z,1.30
2022-08-01T17:42:03.783Z,1.48
2022-08-01T17:52:07.092Z,1.52
2022-08-01T18:02:11.925Z,1.35
2022-08-01T18:12:15.525Z,1.30
2022-08-01T18:22:33.918Z,1.20
2022-08-01T18:32:37.233Z,1.43
2022-08-01T18:42:41.476Z,1.70
2022-08-01T18:52:44.919Z,1.33
2022-08-01T19:02:49.135Z,1.50
2022-08-01T19:12:51.962Z,1.40
2022-08-01T19:22:57.077Z,1.58
2022-08-01T19:33:00.189Z,1.42
2022-08-01T19:43:04.586Z,1.55
2022-08-01T19:53:08.259Z,1.27
2022-08-01T20:03:15.883Z,1.50
2022-08-01T20:13:19.006Z,1.60
2022-08-01T20:23:27.215Z,1.67
2022-08-01T20:33:30.533Z,1.50
2022-08-01T20:43:36.334Z,1.60
2022-08-01T20:53:41.798Z,1.90
2022-08-01T21:04:04.457Z,1.90
2022-08-01T21:14:10.987Z,1.48
2022-08-01T21:24:18.347Z,2.00
2022-08-01T21:34:21.221Z,1.40
2022-08-01T21:44:28.781Z,1.45
2022-08-01T21:54:40.599Z,1.77
2022-08-01T22:04:53.251Z,1.80
2022-08-01T22:14:58.878Z,1.60
2022-08-01T22:25:03.249Z,1.65
2022-08-01T22:35:08.299Z,1.55
2022-08-01T22:45:17.026Z,1.67
2022-08-01T22:55:22.096Z,1.95
2022-08-01T23:05:27.475Z,1.60
2022-08-01T23:15:30.767Z,1.38
2022-08-01T23:25:34.893Z,1.60
2022-08-01T23:35:38.938Z,1.35
2022-08-01T23:46:03.572Z,2.03
2022-08-01T23:56:06.249Z,1.70
